This is the latest recevied weather packets stored in our database for station/object HB9EYW-6. If no packets are shown the sender has not sent any weather packets the latest 10 day(s).
| Time | Temp. | Humidity | Pressure | Rain* | Wind** | Luminosity | Snow |
|---|---|---|---|---|---|---|---|
| 1778169604 | 18.33° C | 41% | 0 hPa | 0 mm | - | - | - |
| 1778169304 | 17.78° C | 41% | 0 hPa | 0 mm | - | - | - |
| 1778169004 | 17.22° C | 41% | 0 hPa | 0 mm | - | - | - |
| 1778168704 | 17.78° C | 40% | 0 hPa | 0 mm | - | - | - |
| 1778168404 | 17.78° C | 40% | 0 hPa | 0 mm | - | - | - |
| 1778168104 | 17.78° C | 41% | 0 hPa | 0 mm | - | - | - |
| 1778167804 | 17.78° C | 39% | 0 hPa | 0 mm | - | - | - |
| 1778167504 | 17.78° C | 39% | 0 hPa | 0 mm | - | - | - |
| 1778167204 | 17.78° C | 39% | 0 hPa | 0 mm | - | - | - |
| 1778166904 | 18.33° C | 38% | 0 hPa | 0 mm | - | - | - |
| 1778166604 | 18.33° C | 39% | 0 hPa | 0 mm | - | - | - |
| 1778166304 | 18.33° C | 38% | 0 hPa | 0 mm | - | - | - |
| 1778166004 | 18.33° C | 38% | 0 hPa | 0 mm | - | - | - |
| 1778165704 | 18.33° C | 39% | 0 hPa | 0 mm | - | - | - |
| 1778165404 | 17.78° C | 41% | 0 hPa | 0 mm | - | - | - |
| 1778165104 | 17.78° C | 42% | 0 hPa | 0 mm | - | - | - |
| 1778164804 | 17.78° C | 40% | 0 hPa | 0 mm | - | - | - |
| 1778164504 | 17.78° C | 40% | 0 hPa | 0 mm | - | - | - |
| 1778164204 | 17.78° C | 36% | 0 hPa | 0 mm | - | - | - |
| 1778163904 | 18.33° C | 35% | 0 hPa | 0 mm | - | - | - |
| 1778163604 | 18.33° C | 34% | 0 hPa | 0 mm | - | - | - |
| 1778163304 | 18.89° C | 33% | 0 hPa | 0 mm | - | - | - |
| 1778163004 | 19.44° C | 26% | 0 hPa | 0 mm | - | - | - |
| 1778162704 | 18.89° C | 30% | 0 hPa | 0 mm | - | - | - |
| 1778162404 | 18.89° C | 30% | 0 hPa | 0 mm | - | - | - |
* Rain latest hour (hover to see other rain measurements)
** Current wind speed in m/s (hover to see current wind gust speed)